createdAt,value
2019-01-25T00:02:42.296Z,27.33
2019-01-25T00:05:46.145Z,26.47
2019-01-25T00:08:50.073Z,28.53
2019-01-25T00:11:53.946Z,25.77
2019-01-25T00:14:57.787Z,26.53
2019-01-25T00:18:01.728Z,29.00
2019-01-25T00:21:05.836Z,27.60
2019-01-25T00:36:52.202Z,29.53
2019-01-25T00:39:56.058Z,27.50
2019-01-25T00:42:59.960Z,28.57
2019-01-25T00:46:03.884Z,28.37
2019-01-25T00:49:07.730Z,28.83
2019-01-25T00:52:11.735Z,27.10
2019-01-25T00:55:15.730Z,30.50
2019-01-25T00:58:19.592Z,29.73
2019-01-25T01:01:23.593Z,31.67
2019-01-25T01:04:27.586Z,30.13
2019-01-25T01:07:31.521Z,30.97
2019-01-25T01:10:35.475Z,31.23
2019-01-25T01:13:39.445Z,30.37
2019-01-25T01:16:43.374Z,32.20
2019-01-25T01:19:47.216Z,33.27
2019-01-25T01:22:51.397Z,30.73
2019-01-25T01:25:55.327Z,31.33
2019-01-25T01:28:59.170Z,30.30
2019-01-25T01:32:03.154Z,31.67
2019-01-25T01:35:07.235Z,31.57
2019-01-25T01:38:11.180Z,32.00
2019-01-25T01:41:15.062Z,32.03
2019-01-25T01:44:18.966Z,30.43
2019-01-25T01:47:22.948Z,30.90
2019-01-25T01:50:26.920Z,31.10
2019-01-25T01:53:30.769Z,31.53
2019-01-25T01:56:34.653Z,30.67
2019-01-25T01:59:38.499Z,29.97
2019-01-25T02:02:42.519Z,29.40
2019-01-25T02:05:46.435Z,30.30
2019-01-25T02:08:50.278Z,31.13
2019-01-25T02:11:54.109Z,28.37
2019-01-25T02:14:58.034Z,29.97
2019-01-25T02:18:01.884Z,30.37
2019-01-25T02:21:06.871Z,28.43
2019-01-25T02:24:10.718Z,30.00
2019-01-25T02:27:14.572Z,30.83
2019-01-25T02:30:20.706Z,30.83
2019-01-25T02:33:24.641Z,30.23
2019-01-25T02:36:28.478Z,31.40
2019-01-25T02:39:32.336Z,29.70
2019-01-25T02:42:36.250Z,30.70
2019-01-25T02:45:40.094Z,30.50
2019-01-25T02:48:43.931Z,28.93
2019-01-25T02:51:47.766Z,29.30
2019-01-25T02:54:51.682Z,28.83
2019-01-25T02:57:55.538Z,30.13
2019-01-25T03:00:59.421Z,25.50
2019-01-25T03:04:03.351Z,25.30
2019-01-25T03:07:07.257Z,25.10
2019-01-25T03:10:12.460Z,25.60
2019-01-25T03:13:16.298Z,27.00
2019-01-25T03:16:20.236Z,24.67
2019-01-25T03:19:24.149Z,24.97
2019-01-25T03:22:28.079Z,23.40
2019-01-25T03:25:31.997Z,24.67
2019-01-25T03:28:36.001Z,24.33
2019-01-25T03:31:39.886Z,25.17
2019-01-25T03:34:43.737Z,24.93
2019-01-25T03:37:47.743Z,25.27
2019-01-25T03:40:55.137Z,25.07
2019-01-25T03:43:57.270Z,24.20
2019-01-25T03:47:01.090Z,24.77
2019-01-25T03:50:07.434Z,24.33
2019-01-25T03:53:11.375Z,25.60
2019-01-25T03:56:15.178Z,25.23
2019-01-25T03:59:18.974Z,24.60
2019-01-25T04:02:22.895Z,25.87
2019-01-25T04:05:26.853Z,25.03
2019-01-25T04:08:30.812Z,25.50
2019-01-25T04:11:34.682Z,25.50
2019-01-25T04:14:38.609Z,26.73
2019-01-25T04:17:42.487Z,26.03
2019-01-25T04:20:46.393Z,25.13
2019-01-25T04:23:50.257Z,27.73
2019-01-25T04:26:54.056Z,26.20
2019-01-25T04:29:57.919Z,24.83
2019-01-25T04:33:01.774Z,25.57
2019-01-25T04:36:05.875Z,26.80
2019-01-25T04:39:10.264Z,27.23
2019-01-25T04:42:14.139Z,26.40
2019-01-25T04:45:19.242Z,27.30
2019-01-25T04:48:23.117Z,27.60
2019-01-25T04:51:27.020Z,26.77
2019-01-25T04:54:30.968Z,27.07
2019-01-25T04:57:34.818Z,28.80
2019-01-25T05:00:38.712Z,29.87
2019-01-25T05:03:42.564Z,29.53
2019-01-25T05:06:46.400Z,28.27
2019-01-25T05:09:50.197Z,29.27
2019-01-25T05:12:54.505Z,29.17
2019-01-25T05:15:58.359Z,29.20
2019-01-25T05:19:02.221Z,30.40
2019-01-25T05:22:06.202Z,29.77
2019-01-25T05:25:10.171Z,29.53
2019-01-25T05:28:18.693Z,29.63
2019-01-25T05:31:26.310Z,29.43
2019-01-25T05:34:30.129Z,30.13
2019-01-25T05:37:33.961Z,29.53
2019-01-25T05:40:37.839Z,29.83
2019-01-25T05:43:42.954Z,28.07
2019-01-25T05:46:46.761Z,27.80
2019-01-25T05:49:50.600Z,30.33
2019-01-25T05:52:54.601Z,29.07
2019-01-25T05:55:58.552Z,30.00
2019-01-25T05:59:02.407Z,27.23
2019-01-25T06:02:06.398Z,27.93
2019-01-25T06:05:10.437Z,29.23
2019-01-25T06:08:32.227Z,27.87
2019-01-25T06:11:37.480Z,27.67
2019-01-25T06:14:41.333Z,29.63
2019-01-25T06:17:45.183Z,29.90
2019-01-25T06:20:52.478Z,29.10
2019-01-25T06:23:56.307Z,28.60
2019-01-25T06:27:00.315Z,29.03
2019-01-25T06:30:07.080Z,29.20
2019-01-25T06:33:10.966Z,29.60
2019-01-25T06:36:14.866Z,28.93
2019-01-25T06:39:18.785Z,29.13
2019-01-25T06:42:22.709Z,28.60
2019-01-25T06:45:26.531Z,30.13
2019-01-25T06:48:30.450Z,31.10
2019-01-25T06:51:34.420Z,28.67
2019-01-25T06:54:38.264Z,29.47
2019-01-25T06:57:54.725Z,30.00
2019-01-25T07:01:06.624Z,31.20
2019-01-25T07:04:10.600Z,29.23
2019-01-25T07:07:39.567Z,30.70
2019-01-25T07:10:43.479Z,29.50
2019-01-25T07:13:47.302Z,30.63
2019-01-25T07:16:51.159Z,29.60
2019-01-25T07:19:54.990Z,31.63
2019-01-25T07:22:58.852Z,32.20
2019-01-25T07:26:02.842Z,32.13
2019-01-25T07:29:06.764Z,30.93
2019-01-25T07:32:10.779Z,31.07
2019-01-25T07:35:14.717Z,32.17
2019-01-25T07:38:18.765Z,31.93
2019-01-25T07:41:22.602Z,32.20
2019-01-25T07:44:26.658Z,32.73
2019-01-25T07:47:30.578Z,30.70
2019-01-25T07:50:34.465Z,31.13
2019-01-25T07:53:38.626Z,33.23
2019-01-25T07:56:42.448Z,33.73
2019-01-25T07:59:46.360Z,34.80
2019-01-25T08:02:50.285Z,33.20
2019-01-25T08:05:54.172Z,32.07
2019-01-25T08:08:58.012Z,33.00
2019-01-25T08:12:07.332Z,34.90
2019-01-25T08:15:10.660Z,33.90
2019-01-25T08:18:14.597Z,31.10
2019-01-25T08:21:18.497Z,33.80
2019-01-25T08:24:22.360Z,33.63
2019-01-25T08:27:26.169Z,33.37
2019-01-25T08:30:30.158Z,33.73
2019-01-25T08:33:34.021Z,32.40
2019-01-25T08:36:37.940Z,34.07
2019-01-25T08:39:41.864Z,32.03
2019-01-25T08:42:45.832Z,33.40
2019-01-25T08:45:49.871Z,33.13
2019-01-25T08:48:54.091Z,33.40
2019-01-25T08:51:57.965Z,33.47
2019-01-25T08:55:01.798Z,33.50
2019-01-25T08:58:05.782Z,33.23
2019-01-25T09:01:09.604Z,33.00
2019-01-25T09:04:13.436Z,33.60
2019-01-25T09:07:17.334Z,35.00
2019-01-25T09:10:21.309Z,33.40
2019-01-25T09:13:25.159Z,33.83
2019-01-25T09:16:29.039Z,32.43
2019-01-25T09:19:32.929Z,34.03
2019-01-25T09:22:36.815Z,32.20
2019-01-25T09:25:40.654Z,34.43
2019-01-25T09:28:44.527Z,35.47
2019-01-25T09:31:48.405Z,33.70
2019-01-25T09:34:52.203Z,32.83
2019-01-25T09:37:56.100Z,34.10
2019-01-25T09:40:59.900Z,32.07
2019-01-25T09:44:03.896Z,33.70
2019-01-25T09:47:07.878Z,32.50
2019-01-25T09:50:14.019Z,33.50
2019-01-25T09:53:17.822Z,32.53
2019-01-25T09:56:21.620Z,30.87
2019-01-25T09:59:25.422Z,32.37
2019-01-25T10:02:29.245Z,32.57
2019-01-25T10:05:33.066Z,32.27
2019-01-25T10:08:36.873Z,31.40
2019-01-25T10:11:40.677Z,32.17
2019-01-25T10:14:44.539Z,29.50
2019-01-25T10:17:48.464Z,31.23
2019-01-25T10:20:52.281Z,32.33
2019-01-25T10:23:56.091Z,31.97
2019-01-25T10:26:59.955Z,30.77
2019-01-25T10:30:04.645Z,31.03
2019-01-25T10:33:08.466Z,29.87
2019-01-25T10:36:12.426Z,30.63
2019-01-25T10:39:16.242Z,30.90
2019-01-25T10:42:20.045Z,29.57
2019-01-25T10:45:26.797Z,30.90
2019-01-25T10:48:30.595Z,31.57
2019-01-25T10:51:34.567Z,28.30
2019-01-25T10:54:38.375Z,27.83
2019-01-25T10:57:42.334Z,27.57
2019-01-25T11:00:46.212Z,30.47
2019-01-25T11:03:50.048Z,29.53
2019-01-25T11:06:53.849Z,26.73
2019-01-25T11:09:57.689Z,26.40
2019-01-25T11:13:02.064Z,21.70
2019-01-25T11:16:06.348Z,27.53
2019-01-25T11:19:10.277Z,27.63
2019-01-25T11:22:14.085Z,26.97
2019-01-25T11:25:28.874Z,26.17
2019-01-25T11:28:32.667Z,26.17
2019-01-25T11:31:36.471Z,25.73
2019-01-25T11:34:40.440Z,19.37
2019-01-25T11:37:44.379Z,21.23
2019-01-25T11:40:48.359Z,19.67
2019-01-25T11:43:52.189Z,20.13
2019-01-25T11:46:56.134Z,23.47
2019-01-25T11:50:00.010Z,26.20
2019-01-25T11:53:04.017Z,23.60
2019-01-25T11:56:07.989Z,24.53
2019-01-25T11:59:11.921Z,24.97
2019-01-25T12:02:20.880Z,23.00
2019-01-25T12:05:22.673Z,23.00
2019-01-25T12:08:26.579Z,22.87
2019-01-25T12:11:30.470Z,23.67
2019-01-25T12:14:34.276Z,21.03
2019-01-25T12:17:38.099Z,21.10
2019-01-25T12:20:41.918Z,21.40
2019-01-25T12:23:45.790Z,22.10
2019-01-25T12:26:49.594Z,23.83
2019-01-25T12:29:53.417Z,21.90
2019-01-25T12:32:57.380Z,15.80
2019-01-25T12:36:01.196Z,20.20
2019-01-25T12:39:08.343Z,16.80
2019-01-25T12:42:12.225Z,18.80
2019-01-25T12:45:18.832Z,22.33
2019-01-25T12:48:22.658Z,20.53
2019-01-25T12:51:36.004Z,22.93
2019-01-25T12:54:39.837Z,21.63
2019-01-25T12:57:43.636Z,21.27
2019-01-25T13:00:47.567Z,20.80
2019-01-25T13:03:51.463Z,20.40
2019-01-25T13:06:55.391Z,22.90
2019-01-25T13:09:59.196Z,20.60
2019-01-25T13:13:03.179Z,22.60
2019-01-25T13:16:07.118Z,22.63
2019-01-25T13:19:11.101Z,21.70
2019-01-25T13:22:14.913Z,24.00
2019-01-25T13:25:18.819Z,22.93
2019-01-25T13:28:22.813Z,20.90
2019-01-25T13:31:26.616Z,23.03
2019-01-25T13:34:30.471Z,22.30
2019-01-25T13:37:34.335Z,21.80
2019-01-25T13:40:38.214Z,22.30
2019-01-25T13:43:42.102Z,19.73
2019-01-25T13:46:45.897Z,22.20
2019-01-25T13:49:49.731Z,22.37
2019-01-25T13:52:53.669Z,21.20
2019-01-25T13:55:57.574Z,20.90
2019-01-25T13:59:01.386Z,21.03
2019-01-25T14:02:05.359Z,21.13
2019-01-25T14:05:09.475Z,20.20
2019-01-25T14:08:13.286Z,22.40
2019-01-25T14:11:17.188Z,21.80
2019-01-25T14:14:21.032Z,21.10
2019-01-25T14:17:24.845Z,22.17
2019-01-25T14:20:30.514Z,21.63
2019-01-25T14:23:34.327Z,21.00
2019-01-25T14:26:38.291Z,21.37
2019-01-25T14:29:42.126Z,20.97
2019-01-25T14:32:45.933Z,21.70
2019-01-25T14:35:49.770Z,21.70
2019-01-25T14:38:53.593Z,21.60
2019-01-25T14:41:57.399Z,21.73
2019-01-25T14:45:01.218Z,20.13
2019-01-25T14:48:05.693Z,22.10
2019-01-25T14:51:09.568Z,19.70
2019-01-25T14:54:13.377Z,20.67
2019-01-25T14:57:17.204Z,22.47
2019-01-25T15:00:21.078Z,23.30
2019-01-25T15:03:24.908Z,24.60
2019-01-25T15:06:28.788Z,18.63
2019-01-25T15:09:32.612Z,24.07
2019-01-25T15:12:36.586Z,24.63
2019-01-25T15:15:40.466Z,24.03
2019-01-25T15:18:44.279Z,24.13
2019-01-25T15:21:48.086Z,22.70
2019-01-25T15:24:52.050Z,24.47
2019-01-25T15:27:55.988Z,23.17
2019-01-25T15:30:59.871Z,22.40
2019-01-25T15:34:03.796Z,23.93
2019-01-25T15:37:07.704Z,23.67
2019-01-25T15:40:12.399Z,23.40
2019-01-25T15:43:16.203Z,25.47
2019-01-25T15:46:20.270Z,24.13
2019-01-25T15:49:24.091Z,24.13
2019-01-25T15:52:28.025Z,24.73
2019-01-25T15:55:32.191Z,24.70
2019-01-25T15:58:36.098Z,23.83
2019-01-25T16:01:39.926Z,24.67
2019-01-25T16:04:43.731Z,25.90
2019-01-25T16:07:47.881Z,28.03
2019-01-25T16:10:51.798Z,25.70
2019-01-25T16:13:55.613Z,26.23
2019-01-25T16:16:59.517Z,26.60
2019-01-25T16:20:03.504Z,28.43
2019-01-25T16:23:07.465Z,31.93
2019-01-25T16:26:11.273Z,29.20
2019-01-25T16:29:15.102Z,27.73
2019-01-25T16:32:19.021Z,28.60
2019-01-25T16:35:22.916Z,28.70
2019-01-25T16:38:27.656Z,27.83
2019-01-25T16:41:31.498Z,29.30
2019-01-25T16:44:36.391Z,28.83
2019-01-25T16:47:40.205Z,28.77
2019-01-25T16:50:44.096Z,28.77
2019-01-25T16:53:47.977Z,31.43
2019-01-25T16:56:51.789Z,30.80
2019-01-25T16:59:55.668Z,32.17
2019-01-25T17:02:59.490Z,31.37
2019-01-25T17:06:03.436Z,33.50
2019-01-25T17:09:08.358Z,34.83
2019-01-25T17:12:12.181Z,36.07
2019-01-25T17:15:16.378Z,35.33
2019-01-25T17:18:20.332Z,34.97
2019-01-25T17:21:24.234Z,37.93
2019-01-25T17:24:28.087Z,35.17
2019-01-25T17:27:31.910Z,39.87
2019-01-25T17:30:36.488Z,39.20
2019-01-25T17:33:40.405Z,42.87
2019-01-25T17:36:44.301Z,40.20
2019-01-25T17:39:48.188Z,38.97
2019-01-25T17:42:52.172Z,39.40
2019-01-25T17:45:56.047Z,37.17
2019-01-25T17:48:59.941Z,39.60
2019-01-25T17:52:03.850Z,38.73
2019-01-25T17:55:08.769Z,40.97
2019-01-25T17:58:12.678Z,37.60
2019-01-25T18:01:16.501Z,38.33
2019-01-25T18:04:20.319Z,39.63
2019-01-25T18:07:24.208Z,34.73
2019-01-25T18:10:28.172Z,37.70
2019-01-25T18:13:32.048Z,39.20
2019-01-25T18:16:36.011Z,36.30
2019-01-25T18:19:39.828Z,38.83
2019-01-25T18:22:43.781Z,38.40
2019-01-25T18:26:00.822Z,39.27
2019-01-25T18:29:14.237Z,39.23
2019-01-25T18:32:18.136Z,39.80
2019-01-25T18:35:21.964Z,40.10
2019-01-25T18:38:25.793Z,40.73
2019-01-25T18:41:29.627Z,39.33
2019-01-25T18:44:33.460Z,40.00
2019-01-25T18:47:37.699Z,40.20
2019-01-25T18:50:41.596Z,37.07
2019-01-25T18:53:45.982Z,38.40
2019-01-25T18:56:51.181Z,36.20
2019-01-25T18:59:54.966Z,38.30
2019-01-25T19:02:58.832Z,37.93
2019-01-25T19:06:02.836Z,35.17
2019-01-25T19:09:09.025Z,37.43
2019-01-25T19:12:12.858Z,37.50
2019-01-25T19:15:19.444Z,38.60
2019-01-25T19:18:23.329Z,37.07
2019-01-25T19:21:27.162Z,39.23
2019-01-25T19:24:30.964Z,39.47
2019-01-25T19:27:34.845Z,37.03
2019-01-25T19:30:41.215Z,37.60
2019-01-25T19:33:45.034Z,36.63
2019-01-25T19:36:48.904Z,42.93
2019-01-25T19:39:52.798Z,37.00
2019-01-25T19:42:56.765Z,37.30
2019-01-25T19:46:00.567Z,47.80
2019-01-25T19:49:04.540Z,54.13
2019-01-25T19:52:08.565Z,60.93
2019-01-25T19:55:15.373Z,78.43
2019-01-25T19:58:20.751Z,63.43
2019-01-25T20:01:24.746Z,38.20
2019-01-25T20:04:28.657Z,37.97
2019-01-25T20:07:32.475Z,35.50
2019-01-25T20:10:36.432Z,36.03
2019-01-25T20:13:40.344Z,38.13
2019-01-25T20:16:44.236Z,37.07
2019-01-25T20:19:48.036Z,38.57
2019-01-25T20:22:51.885Z,38.73
2019-01-25T20:25:55.697Z,38.23
2019-01-25T20:28:59.522Z,41.40
2019-01-25T20:32:03.560Z,39.50
2019-01-25T20:35:09.610Z,36.83
2019-01-25T20:38:13.553Z,37.87
2019-01-25T20:41:17.474Z,40.73
2019-01-25T20:44:21.353Z,37.67
2019-01-25T20:47:25.319Z,37.97
2019-01-25T20:50:30.369Z,35.23
2019-01-25T20:53:34.253Z,36.00
2019-01-25T20:56:38.064Z,37.47
2019-01-25T20:59:41.888Z,36.90
2019-01-25T21:02:45.783Z,36.13
2019-01-25T21:05:49.666Z,34.60
2019-01-25T21:08:53.598Z,36.13
2019-01-25T21:11:57.475Z,38.37
2019-01-25T21:15:01.285Z,36.40
2019-01-25T21:18:06.322Z,34.67
2019-01-25T21:21:10.208Z,35.13
2019-01-25T21:24:14.124Z,35.67
2019-01-25T21:27:17.949Z,36.17
2019-01-25T21:30:24.394Z,35.47
2019-01-25T21:33:28.376Z,36.73
2019-01-25T21:36:32.325Z,36.00
2019-01-25T21:39:36.149Z,34.53
2019-01-25T21:42:39.946Z,34.27
2019-01-25T21:45:43.879Z,36.70
2019-01-25T21:48:47.706Z,35.13
2019-01-25T21:51:51.600Z,35.07
2019-01-25T21:54:55.439Z,34.20
2019-01-25T21:58:05.508Z,34.80
2019-01-25T22:01:05.056Z,34.20
2019-01-25T22:04:08.877Z,36.93
2019-01-25T22:07:12.711Z,33.43
2019-01-25T22:10:22.298Z,33.60
2019-01-25T22:13:26.096Z,34.70
2019-01-25T22:16:30.081Z,32.80
2019-01-25T22:19:33.993Z,31.50
2019-01-25T22:22:37.899Z,33.60
2019-01-25T22:25:41.940Z,31.93
2019-01-25T22:28:45.765Z,33.03
2019-01-25T22:31:49.721Z,32.93
2019-01-25T22:34:53.516Z,32.77
2019-01-25T22:37:57.487Z,32.67
2019-01-25T22:41:01.374Z,33.77
2019-01-25T22:44:05.262Z,32.07
2019-01-25T22:47:09.154Z,34.27
2019-01-25T22:50:16.415Z,33.10
2019-01-25T22:53:20.385Z,32.10
2019-01-25T22:56:24.240Z,34.03
2019-01-25T22:59:28.101Z,36.13
2019-01-25T23:02:31.991Z,33.40
2019-01-25T23:06:11.694Z,34.27
2019-01-25T23:09:30.588Z,33.57
2019-01-25T23:12:35.862Z,35.13
2019-01-25T23:15:39.875Z,34.13
2019-01-25T23:18:43.685Z,33.80
2019-01-25T23:21:47.594Z,34.93
2019-01-25T23:24:51.410Z,35.97
2019-01-25T23:27:55.233Z,35.27
2019-01-25T23:30:59.199Z,34.40
2019-01-25T23:34:03.103Z,35.17
2019-01-25T23:37:06.955Z,34.40
2019-01-25T23:40:13.238Z,34.73
2019-01-25T23:43:17.158Z,37.37
2019-01-25T23:46:20.958Z,35.97
2019-01-25T23:49:24.793Z,37.00
2019-01-25T23:52:28.619Z,36.63
2019-01-25T23:55:32.588Z,36.47
2019-01-25T23:58:36.481Z,35.53
